IE-0005 weather

Eyne Airfield
Eyne, County Laois, Ireland

Public forecast

Using degrees Celsius for public forecast. Weather courtesy of forecast.io.

Closest aviation weather report (METAR) to Eyne Airfield

Closest report is Casement Air Base, 32.5 nm (60.2 km) ENE. Retrieved 2020/06/06 04:00 UTC (18 minutes ago):

EIME 060400Z 26017KT 9999 BKN015 06/04 Q1000

Closest aviation forecast (TAF) to Eyne Airfield

Closest forecast is Dublin Airport, 41.5 nm (76.9 km) ENE. Retrieved 2020-06-06 00:11 UTC (4 hours ago):

TAF EIDW 052300Z 0600/0624 28017KT 9999 FEW018 BKN030 TEMPO 0601/0608 28018G30KT PROB40 TEMPO 0601/0607 27022G35KT TEMPO 0603/0624 -RA SCT008 BKN014 PROB40 TEMPO 0605/0609 4000 BKN008 BECMG 0608/0610 31017G28KT PROB30 TEMPO 0609/0619 5000 BECMG 0614/0616 32013KT PROB40 TEMPO 0619/0624 5000 BKN008